Darstellungsparameter: Aktuell verwendete Einstellungen:
Skalierung der Graphiken ... ?
xyx+y,   Skalierungsfaktor:      Skalierung: Modus: x, Faktor: 1
Darstellungszeitraum ... ?
Vom - - bis: - -   Zeitraum: 08.05.2022 - 08.05.2022
Min/Max/Avg-Anzeige ... ?
Zeige MMA aktuell
Zeige MMA Monat
Zeige MMA alles
Zeige --A aktuell
Zeige --A Monat
Zeige --A alles
Keine MMA-Anzeige
MMA:
Keine MMA-Graphiken
MMA-Basis: 08.05.2022 - 08.05.2022
Quicknavigation für Darstellung... ?
Tage:      1T, 2T, 3T, 5T -1T -2T -3T -5T +1T +2T +3T +5T
Wochen: 1W, 2W, 3W -1W -2W -3W +1W +2W +3W
Monate: 1M, 3M, 6M -1M -3M -6M +1M +3M +6M
Jahre:    1J, 3J, 5J, 10J -1J -3J -5J -10J +1J +3J +5J +10J
Nutze für die Darstellung ... ?
Originaldaten oder Mittelwerte auf ...
Stundenbasis Tagesbasis Wochenbasis
Monatsbasis Jahresbasis      Datenbasis: Original-Daten
Darstellen als:
Statistik (Auto) Statistik J:M      Darstellung:
Zur Graphik,    zurück zur Übersicht aller Sensoren.
 
Tabellarische Datenbersicht: ?
 
Sensor: Nr:Datum:Temp:Feuchte:Taupunkt:
Aussen-T/F 1 08-05-2022 00:00:00 13.3 C 85 % 10.83 C
2 08-05-2022 00:05:00 13.3 C 85 % 10.83 C
3 08-05-2022 00:10:00 13.2 C 86 % 10.91 C
4 08-05-2022 00:15:00 13.2 C 86 % 10.91 C
5 08-05-2022 00:20:00 13.2 C 86 % 10.91 C
6 08-05-2022 00:25:00 13.3 C 86 % 11.01 C
7 08-05-2022 00:30:00 13.3 C 86 % 11.01 C
8 08-05-2022 00:35:00 13.3 C 87 % 11.18 C
9 08-05-2022 00:40:00 13.4 C 86 % 11.11 C
10 08-05-2022 00:45:00 13.4 C 86 % 11.11 C
11 08-05-2022 00:50:00 13.4 C 86 % 11.11 C
12 08-05-2022 00:55:00 13.4 C 86 % 11.11 C
13 08-05-2022 01:00:00 13.4 C 86 % 11.11 C
14 08-05-2022 01:05:00 13.4 C 86 % 11.11 C
15 08-05-2022 01:10:00 13.4 C 86 % 11.11 C
16 08-05-2022 01:15:00 13.3 C 86 % 11.01 C
17 08-05-2022 01:20:00 13.3 C 86 % 11.01 C
18 08-05-2022 01:25:00 13.2 C 86 % 10.91 C
19 08-05-2022 01:30:00 13 C 86 % 10.72 C
20 08-05-2022 01:35:00 12.8 C 86 % 10.52 C
21 08-05-2022 01:40:00 12.7 C 86 % 10.42 C
22 08-05-2022 01:45:00 12.5 C 87 % 10.4 C
23 08-05-2022 01:50:00 12.3 C 87 % 10.2 C
24 08-05-2022 01:55:00 12.2 C 87 % 10.1 C
25 08-05-2022 02:00:00 12.1 C 87 % 10 C
Sensor: Nr:Datum:Temp:Feuchte:Taupunkt:
Aussen-T/F 26 08-05-2022 02:05:00 11.9 C 88 % 9.98 C
27 08-05-2022 02:10:00 11.8 C 88 % 9.88 C
28 08-05-2022 02:15:00 11.7 C 88 % 9.78 C
29 08-05-2022 02:20:00 11.6 C 89 % 9.85 C
30 08-05-2022 02:25:00 11.6 C 90 % 10.02 C
31 08-05-2022 02:30:00 11.5 C 90 % 9.92 C
32 08-05-2022 02:35:00 11.5 C 90 % 9.92 C
33 08-05-2022 02:40:00 11.5 C 91 % 10.08 C
34 08-05-2022 02:45:00 11.4 C 91 % 9.98 C
35 08-05-2022 02:50:00 11.4 C 91 % 9.98 C
36 08-05-2022 02:55:00 11.3 C 91 % 9.89 C
37 08-05-2022 03:00:00 11.2 C 91 % 9.79 C
38 08-05-2022 03:05:00 11.2 C 91 % 9.79 C
39 08-05-2022 03:10:00 11.1 C 91 % 9.69 C
40 08-05-2022 03:15:00 10.9 C 91 % 9.49 C
41 08-05-2022 03:20:00 10.9 C 91 % 9.49 C
42 08-05-2022 03:25:00 10.8 C 91 % 9.39 C
43 08-05-2022 03:30:00 10.8 C 92 % 9.55 C
44 08-05-2022 03:35:00 10.7 C 91 % 9.29 C
45 08-05-2022 03:40:00 10.7 C 92 % 9.45 C
46 08-05-2022 03:45:00 10.6 C 92 % 9.36 C
47 08-05-2022 03:50:00 10.6 C 92 % 9.36 C
48 08-05-2022 03:55:00 10.5 C 92 % 9.26 C
49 08-05-2022 04:00:00 10.4 C 92 % 9.16 C
50 08-05-2022 04:05:00 10.4 C 92 % 9.16 C
Sensor: Nr:Datum:Temp:Feuchte:Taupunkt:
Aussen-T/F 51 08-05-2022 04:10:00 10.3 C 92 % 9.06 C
52 08-05-2022 04:15:00 10.3 C 92 % 9.06 C
53 08-05-2022 04:20:00 10.3 C 92 % 9.06 C
54 08-05-2022 04:25:00 10.2 C 92 % 8.96 C
55 08-05-2022 04:30:00 10.2 C 93 % 9.12 C
56 08-05-2022 04:35:00 10.2 C 93 % 9.12 C
57 08-05-2022 04:40:00 10.3 C 94 % 9.38 C
58 08-05-2022 04:45:00 10.5 C 94 % 9.58 C
59 08-05-2022 04:50:00 10.6 C 94 % 9.68 C
60 08-05-2022 04:55:00 10.6 C 94 % 9.68 C
61 08-05-2022 05:00:00 10.5 C 94 % 9.58 C
62 08-05-2022 05:05:00 10.4 C 94 % 9.48 C
63 08-05-2022 05:10:00 10.4 C 93 % 9.32 C
64 08-05-2022 05:15:00 10.4 C 94 % 9.48 C
65 08-05-2022 05:20:00 10.4 C 94 % 9.48 C
66 08-05-2022 05:25:00 10.4 C 94 % 9.48 C
67 08-05-2022 05:30:00 10.4 C 94 % 9.48 C
68 08-05-2022 05:35:00 10.6 C 94 % 9.68 C
69 08-05-2022 05:40:00 10.6 C 94 % 9.68 C
70 08-05-2022 05:45:00 10.4 C 94 % 9.48 C
71 08-05-2022 05:50:00 10.4 C 93 % 9.32 C
72 08-05-2022 05:55:00 10.3 C 93 % 9.22 C
73 08-05-2022 06:00:00 10.2 C 94 % 9.28 C
74 08-05-2022 06:05:00 10.2 C 94 % 9.28 C
75 08-05-2022 06:10:00 10.2 C 94 % 9.28 C
Sensor: Nr:Datum:Temp:Feuchte:Taupunkt:
Aussen-T/F 76 08-05-2022 06:15:00 10.1 C 94 % 9.18 C
77 08-05-2022 06:20:00 10.1 C 94 % 9.18 C
78 08-05-2022 06:25:00 10.1 C 94 % 9.18 C
79 08-05-2022 06:30:00 10 C 94 % 9.08 C
80 08-05-2022 06:35:00 10 C 94 % 9.08 C
81 08-05-2022 06:40:00 10 C 94 % 9.08 C
82 08-05-2022 06:45:00 10.1 C 94 % 9.18 C
83 08-05-2022 06:50:00 10.2 C 95 % 9.44 C
84 08-05-2022 06:55:00 10.2 C 94 % 9.28 C
85 08-05-2022 07:00:00 10.3 C 94 % 9.38 C
86 08-05-2022 07:05:00 10.3 C 95 % 9.54 C
87 08-05-2022 07:10:00 10.3 C 95 % 9.54 C
88 08-05-2022 07:15:00 10.3 C 95 % 9.54 C
89 08-05-2022 07:20:00 10.4 C 95 % 9.63 C
90 08-05-2022 07:25:00 10.5 C 95 % 9.73 C
91 08-05-2022 07:30:00 10.6 C 95 % 9.83 C
92 08-05-2022 07:35:00 10.7 C 95 % 9.93 C
93 08-05-2022 07:40:00 10.7 C 95 % 9.93 C
94 08-05-2022 07:45:00 10.8 C 95 % 10.03 C
95 08-05-2022 07:50:00 10.8 C 95 % 10.03 C
96 08-05-2022 07:55:00 10.9 C 95 % 10.13 C
97 08-05-2022 08:00:00 11.1 C 95 % 10.33 C
98 08-05-2022 08:05:00 11.1 C 95 % 10.33 C
99 08-05-2022 08:10:00 11.2 C 95 % 10.43 C
100 08-05-2022 08:15:00 11.3 C 95 % 10.53 C
Sensor: Nr:Datum:Temp:Feuchte:Taupunkt:
Aussen-T/F 101 08-05-2022 08:20:00 11.4 C 95 % 10.63 C
102 08-05-2022 08:25:00 11.6 C 96 % 10.98 C
103 08-05-2022 08:30:00 11.8 C 96 % 11.18 C
104 08-05-2022 08:35:00 11.9 C 96 % 11.28 C
105 08-05-2022 08:40:00 12.1 C 96 % 11.48 C
106 08-05-2022 08:45:00 12.3 C 96 % 11.68 C
107 08-05-2022 08:50:00 12.4 C 95 % 11.62 C
108 08-05-2022 08:55:00 12.5 C 95 % 11.72 C
109 08-05-2022 09:00:00 12.7 C 94 % 11.76 C
110 08-05-2022 09:05:00 12.9 C 94 % 11.96 C
111 08-05-2022 09:10:00 13.1 C 93 % 11.99 C
112 08-05-2022 09:15:00 13.2 C 92 % 11.93 C
113 08-05-2022 09:20:00 13.4 C 92 % 12.13 C
114 08-05-2022 09:25:00 13.5 C 91 % 12.06 C
115 08-05-2022 09:30:00 13.7 C 91 % 12.26 C
116 08-05-2022 09:35:00 13.8 C 91 % 12.36 C
117 08-05-2022 09:40:00 14 C 90 % 12.39 C
118 08-05-2022 09:45:00 14.1 C 89 % 12.32 C
119 08-05-2022 09:50:00 14.3 C 89 % 12.51 C
120 08-05-2022 09:55:00 14.4 C 88 % 12.44 C
121 08-05-2022 10:00:00 14.6 C 87 % 12.46 C
122 08-05-2022 10:05:00 14.7 C 87 % 12.56 C
123 08-05-2022 10:10:00 14.9 C 85 % 12.4 C
124 08-05-2022 10:15:00 15.2 C 84 % 12.52 C
125 08-05-2022 10:20:00 15.3 C 83 % 12.43 C
Sensor: Nr:Datum:Temp:Feuchte:Taupunkt:
Aussen-T/F 126 08-05-2022 10:25:00 15.6 C 83 % 12.72 C
127 08-05-2022 10:30:00 15.8 C 81 % 12.55 C
128 08-05-2022 10:35:00 16.2 C 79 % 12.56 C
129 08-05-2022 10:40:00 16.4 C 79 % 12.75 C
130 08-05-2022 10:45:00 16.7 C 79 % 13.04 C
131 08-05-2022 10:50:00 16.9 C 77 % 12.84 C
132 08-05-2022 10:55:00 17.1 C 76 % 12.84 C
133 08-05-2022 11:00:00 17.3 C 75 % 12.83 C
134 08-05-2022 11:05:00 17.5 C 75 % 13.02 C
135 08-05-2022 11:10:00 17.6 C 75 % 13.12 C
136 08-05-2022 11:15:00 17.8 C 73 % 12.9 C
137 08-05-2022 11:20:00 18 C 74 % 13.3 C
138 08-05-2022 11:25:00 18.2 C 72 % 13.07 C
139 08-05-2022 11:30:00 18.4 C 72 % 13.26 C
140 08-05-2022 11:35:00 18.4 C 72 % 13.26 C
141 08-05-2022 11:40:00 18.3 C 72 % 13.17 C
142 08-05-2022 11:45:00 18.3 C 74 % 13.59 C
143 08-05-2022 11:50:00 18.5 C 73 % 13.57 C
144 08-05-2022 11:55:00 18.5 C 73 % 13.57 C
145 08-05-2022 12:00:00 18.4 C 73 % 13.48 C
146 08-05-2022 12:05:00 18.4 C 73 % 13.48 C
147 08-05-2022 12:10:00 18.3 C 73 % 13.38 C
148 08-05-2022 12:15:00 18.3 C 73 % 13.38 C
149 08-05-2022 12:20:00 18.5 C 73 % 13.57 C
150 08-05-2022 12:25:00 18.6 C 74 % 13.88 C
Sensor: Nr:Datum:Temp:Feuchte:Taupunkt:
Aussen-T/F 151 08-05-2022 12:30:00 18.6 C 73 % 13.67 C
152 08-05-2022 12:35:00 18.7 C 72 % 13.55 C
153 08-05-2022 12:40:00 18.9 C 73 % 13.96 C
154 08-05-2022 12:45:00 19.2 C 71 % 13.82 C
155 08-05-2022 12:50:00 19.4 C 71 % 14.01 C
156 08-05-2022 12:55:00 19.4 C 70 % 13.79 C
157 08-05-2022 13:00:00 19.5 C 71 % 14.1 C
158 08-05-2022 13:05:00 19.8 C 70 % 14.17 C
159 08-05-2022 13:10:00 19.8 C 69 % 13.95 C
160 08-05-2022 13:15:00 19.7 C 69 % 13.86 C
161 08-05-2022 13:20:00 19.6 C 69 % 13.76 C
162 08-05-2022 13:25:00 19.4 C 69 % 13.57 C
163 08-05-2022 13:30:00 19.6 C 70 % 13.98 C
164 08-05-2022 13:35:00 19.6 C 70 % 13.98 C
165 08-05-2022 13:40:00 19.6 C 70 % 13.98 C
166 08-05-2022 13:45:00 19.8 C 68 % 13.73 C
167 08-05-2022 13:50:00 20 C 69 % 14.14 C
168 08-05-2022 13:55:00 20.2 C 69 % 14.33 C
169 08-05-2022 14:00:00 20.3 C 67 % 13.97 C
170 08-05-2022 14:05:00 20.3 C 67 % 13.97 C
171 08-05-2022 14:10:00 20.6 C 67 % 14.26 C
172 08-05-2022 14:15:00 20.8 C 65 % 13.98 C
173 08-05-2022 14:20:00 20.8 C 65 % 13.98 C
174 08-05-2022 14:25:00 21.1 C 67 % 14.74 C
175 08-05-2022 14:30:00 21.2 C 64 % 14.12 C
Sensor: Nr:Datum:Temp:Feuchte:Taupunkt:
Aussen-T/F 176 08-05-2022 14:35:00 20.9 C 64 % 13.84 C
177 08-05-2022 14:40:00 21 C 64 % 13.93 C
178 08-05-2022 14:45:00 21.1 C 65 % 14.27 C
179 08-05-2022 14:50:00 21.3 C 63 % 13.97 C
180 08-05-2022 14:55:00 21.3 C 64 % 14.22 C
181 08-05-2022 15:00:00 21.2 C 62 % 13.63 C
182 08-05-2022 15:05:00 21.2 C 62 % 13.63 C
183 08-05-2022 15:10:00 21.3 C 62 % 13.73 C
184 08-05-2022 15:15:00 21.2 C 63 % 13.88 C
185 08-05-2022 15:20:00 21.2 C 61 % 13.38 C
186 08-05-2022 15:25:00 21.3 C 62 % 13.73 C
187 08-05-2022 15:30:00 21.3 C 62 % 13.73 C
188 08-05-2022 15:35:00 21.3 C 62 % 13.73 C
189 08-05-2022 15:40:00 21.4 C 61 % 13.57 C
190 08-05-2022 15:45:00 21.3 C 62 % 13.73 C
191 08-05-2022 15:50:00 21.2 C 62 % 13.63 C
192 08-05-2022 15:55:00 21.2 C 62 % 13.63 C
193 08-05-2022 16:00:00 21.2 C 61 % 13.38 C
194 08-05-2022 16:05:00 21.1 C 62 % 13.54 C
195 08-05-2022 16:10:00 20.8 C 62 % 13.26 C
196 08-05-2022 16:15:00 20.6 C 64 % 13.55 C
197 08-05-2022 16:20:00 20.1 C 67 % 13.78 C
198 08-05-2022 16:25:00 19.4 C 70 % 13.79 C
199 08-05-2022 16:30:00 19.1 C 75 % 14.57 C
200 08-05-2022 16:35:00 18.9 C 78 % 14.98 C
Sensor: Nr:Datum:Temp:Feuchte:Taupunkt:
Aussen-T/F 201 08-05-2022 16:40:00 18.9 C 80 % 15.38 C
202 08-05-2022 16:45:00 18.8 C 82 % 15.66 C
203 08-05-2022 16:50:00 18.8 C 83 % 15.85 C
204 08-05-2022 16:55:00 18.7 C 84 % 15.94 C
205 08-05-2022 17:00:00 18.6 C 84 % 15.84 C
206 08-05-2022 17:05:00 18.6 C 84 % 15.84 C
207 08-05-2022 17:10:00 18.4 C 82 % 15.27 C
208 08-05-2022 17:15:00 18.2 C 81 % 14.89 C
209 08-05-2022 17:20:00 18.2 C 83 % 15.27 C
210 08-05-2022 17:25:00 18.3 C 85 % 15.74 C
211 08-05-2022 17:30:00 18.4 C 86 % 16.02 C
212 08-05-2022 17:35:00 18.5 C 86 % 16.11 C
213 08-05-2022 17:40:00 18.5 C 85 % 15.93 C
214 08-05-2022 17:45:00 18.4 C 85 % 15.83 C
215 08-05-2022 17:50:00 18.4 C 84 % 15.65 C
216 08-05-2022 17:55:00 18.3 C 83 % 15.36 C
217 08-05-2022 18:00:00 18.1 C 82 % 14.98 C
218 08-05-2022 18:05:00 18.1 C 83 % 15.17 C
219 08-05-2022 18:10:00 18.2 C 85 % 15.64 C
220 08-05-2022 18:15:00 18.2 C 85 % 15.64 C
221 08-05-2022 18:20:00 18.3 C 85 % 15.74 C
222 08-05-2022 18:25:00 18.3 C 84 % 15.55 C
223 08-05-2022 18:30:00 18.3 C 84 % 15.55 C
224 08-05-2022 18:35:00 18.3 C 84 % 15.55 C
225 08-05-2022 18:40:00 18.3 C 84 % 15.55 C
Sensor: Nr:Datum:Temp:Feuchte:Taupunkt:
Aussen-T/F 226 08-05-2022 18:45:00 18.4 C 83 % 15.46 C
227 08-05-2022 18:50:00 18.5 C 82 % 15.37 C
228 08-05-2022 18:55:00 18.6 C 79 % 14.89 C
229 08-05-2022 19:00:00 18.8 C 82 % 15.66 C
230 08-05-2022 19:05:00 18.9 C 82 % 15.76 C
231 08-05-2022 19:10:00 19.1 C 81 % 15.76 C
232 08-05-2022 19:15:00 19.2 C 82 % 16.05 C
233 08-05-2022 19:20:00 19.2 C 80 % 15.67 C
234 08-05-2022 19:25:00 19.2 C 80 % 15.67 C
235 08-05-2022 19:30:00 19.2 C 80 % 15.67 C
236 08-05-2022 19:35:00 19.3 C 80 % 15.76 C
237 08-05-2022 19:40:00 19.3 C 79 % 15.57 C
238 08-05-2022 19:45:00 19.2 C 78 % 15.27 C
239 08-05-2022 19:50:00 19.1 C 78 % 15.18 C
240 08-05-2022 19:55:00 18.9 C 78 % 14.98 C
241 08-05-2022 20:00:00 18.7 C 78 % 14.79 C
242 08-05-2022 20:05:00 18.4 C 78 % 14.5 C
243 08-05-2022 20:10:00 18.1 C 79 % 14.4 C
244 08-05-2022 20:15:00 17.9 C 80 % 14.4 C
245 08-05-2022 20:20:00 17.7 C 81 % 14.4 C
246 08-05-2022 20:25:00 17.6 C 81 % 14.3 C
247 08-05-2022 20:30:00 17.5 C 81 % 14.2 C
248 08-05-2022 20:35:00 17.4 C 82 % 14.3 C
249 08-05-2022 20:40:00 17.3 C 82 % 14.2 C
250 08-05-2022 20:45:00 17.2 C 82 % 14.1 C
Sensor: Nr:Datum:Temp:Feuchte:Taupunkt:
Aussen-T/F 251 08-05-2022 20:50:00 17 C 83 % 14.09 C
252 08-05-2022 20:55:00 16.8 C 83 % 13.9 C
253 08-05-2022 21:00:00 16.7 C 83 % 13.8 C
254 08-05-2022 21:05:00 16.4 C 84 % 13.69 C
255 08-05-2022 21:10:00 16.2 C 84 % 13.5 C
256 08-05-2022 21:15:00 16.1 C 84 % 13.4 C
257 08-05-2022 21:20:00 15.8 C 84 % 13.1 C
258 08-05-2022 21:25:00 15.7 C 84 % 13.01 C
259 08-05-2022 21:30:00 15.3 C 82 % 12.25 C
260 08-05-2022 21:35:00 15.1 C 83 % 12.24 C
261 08-05-2022 21:40:00 14.8 C 83 % 11.94 C
262 08-05-2022 21:45:00 14.5 C 82 % 11.47 C
263 08-05-2022 21:50:00 14.3 C 82 % 11.27 C
264 08-05-2022 21:55:00 14.1 C 83 % 11.26 C
265 08-05-2022 22:00:00 13.9 C 82 % 10.88 C
266 08-05-2022 22:05:00 13.8 C 82 % 10.78 C
267 08-05-2022 22:10:00 13.8 C 82 % 10.78 C
268 08-05-2022 22:15:00 13.8 C 82 % 10.78 C
269 08-05-2022 22:20:00 13.7 C 82 % 10.69 C
270 08-05-2022 22:25:00 13.6 C 82 % 10.59 C
271 08-05-2022 22:30:00 13.4 C 82 % 10.39 C
272 08-05-2022 22:35:00 13.3 C 81 % 10.11 C
273 08-05-2022 22:40:00 13.3 C 82 % 10.3 C
274 08-05-2022 22:45:00 13.3 C 82 % 10.3 C
275 08-05-2022 22:50:00 13.3 C 82 % 10.3 C
Sensor: Nr:Datum:Temp:Feuchte:Taupunkt:
Aussen-T/F 276 08-05-2022 22:55:00 13.2 C 82 % 10.2 C
277 08-05-2022 23:00:00 13.1 C 82 % 10.1 C
278 08-05-2022 23:05:00 12.9 C 82 % 9.9 C
279 08-05-2022 23:10:00 12.8 C 82 % 9.81 C
280 08-05-2022 23:15:00 12.6 C 82 % 9.61 C
281 08-05-2022 23:20:00 12.5 C 83 % 9.69 C
282 08-05-2022 23:25:00 12.3 C 83 % 9.5 C
283 08-05-2022 23:30:00 12.2 C 83 % 9.4 C
284 08-05-2022 23:35:00 12.1 C 83 % 9.3 C
285 08-05-2022 23:40:00 11.9 C 84 % 9.29 C
286 08-05-2022 23:45:00 11.8 C 84 % 9.19 C
287 08-05-2022 23:50:00 11.7 C 85 % 9.27 C
288 08-05-2022 23:55:00 11.6 C 85 % 9.17 C

Legende:
   Min
   Max


Maximal/Minimal-Werte vom 08.05.2022 - 08.05.2022

Sensor Min Max Avg
Temp
(Aussen-T/F)
10 °C
08-05-2022  06:30:00
21.4 °C
08-05-2022  15:40:00
15.18 °C
Feuchte
(Aussen-T/F)
61 %
08-05-2022  15:20:00
96 %
08-05-2022  08:25:00
82.83 %
Taupunkt
(Aussen-T/F)
8.96 C
08-05-2022  04:25:00
16.11 C
08-05-2022  17:35:00
12.1 C

Die Daten stammen von einer Davis Vantage Pro 2 Wetter-Station und werden unter Linux mit der Software wview2wettercgi und aufbereitet. Alle Angaben erfolgen ohne Gewähr für ihre Vollständigkeit oder Richtigkeit.
Kontakt: Rainer Krienke krienke@uni-koblenz.de . Meine Webseiten an der Uni Koblenz oder privat.
Version: $Revision: 0.78 $